Time;durP1;ratioP1;P1;durP2;ratioP2;P2;SDS_P1;SDS_P2;PMS_P1;PMS_P2;Temp;Humidity;BMP_temperature;BMP_pressure;BME280_temperature;BME280_humidity;BME280_pressure;Samples;Min_cycle;Max_cycle;Signal;HPM_P1;HPM_P2
2021/11/15 00:00:48;;;;;;;14.38;9.45;;;9.30;90.40;;;;;;2089368;28;20029;-91
2021/11/15 00:01:50;;;;;;;12.90;9.00;;;9.30;90.40;;;;;;2105911;28;20043;-92
2021/11/15 00:02:51;;;;;;;13.15;9.32;;;9.30;90.40;;;;;;2100889;28;20039;-91
2021/11/15 00:03:52;;;;;;;14.35;9.50;;;9.30;90.40;;;;;;2084999;28;20079;-92
2021/11/15 00:04:53;;;;;;;13.02;9.23;;;9.30;90.40;;;;;;2086752;28;20490;-92
2021/11/15 00:05:54;;;;;;;12.15;9.25;;;9.30;90.40;;;;;;2073395;28;20053;-92
2021/11/15 00:06:55;;;;;;;14.65;9.60;;;9.30;90.40;;;;;;2087835;28;20475;-91
2021/11/15 00:07:56;;;;;;;13.00;9.43;;;9.30;90.40;;;;;;2105037;28;20032;-92
2021/11/15 00:08:57;;;;;;;13.45;9.02;;;9.30;90.40;;;;;;2098089;28;20441;-91
2021/11/15 00:09:57;;;;;;;13.15;8.93;;;9.30;90.40;;;;;;2096634;28;20036;-91
2021/11/15 00:10:58;;;;;;;13.80;9.57;;;9.30;90.40;;;;;;2100393;28;20013;-88
2021/11/15 00:12:00;;;;;;;12.07;8.90;;;9.30;90.40;;;;;;2097993;28;20040;-83
2021/11/15 00:13:01;;;;;;;13.18;9.48;;;9.30;90.40;;;;;;2116874;28;20040;-85
2021/11/15 00:14:02;;;;;;;13.82;9.30;;;9.30;90.40;;;;;;2125082;28;20020;-85
2021/11/15 00:15:03;;;;;;;13.05;8.95;;;9.30;90.40;;;;;;2125211;28;20344;-92
2021/11/15 00:16:04;;;;;;;13.43;9.48;;;9.30;90.50;;;;;;2116886;28;20018;-84
2021/11/15 00:17:05;;;;;;;12.75;8.90;;;9.30;90.40;;;;;;2111462;28;20033;-91
2021/11/15 00:18:06;;;;;;;13.45;9.43;;;9.30;90.40;;;;;;2118254;28;20046;-91
2021/11/15 00:19:07;;;;;;;12.85;8.98;;;9.30;90.40;;;;;;2125212;28;20032;-79
2021/11/15 00:20:09;;;;;;;13.00;9.63;;;9.30;90.40;;;;;;2119507;28;20020;-81
2021/11/15 00:21:10;;;;;;;14.02;9.55;;;9.30;90.40;;;;;;2100333;28;20071;-89
2021/11/15 00:22:11;;;;;;;14.65;9.98;;;9.30;90.40;;;;;;2114135;28;20072;-92
2021/11/15 00:23:11;;;;;;;12.98;9.27;;;9.30;90.40;;;;;;2113900;28;20051;-92
2021/11/15 00:24:13;;;;;;;13.40;9.60;;;9.30;90.40;;;;;;2098223;28;20045;-91
2021/11/15 00:25:14;;;;;;;13.02;9.88;;;9.30;90.40;;;;;;2098316;28;20021;-91
2021/11/15 00:26:15;;;;;;;14.02;9.65;;;9.30;90.40;;;;;;2106327;28;20016;-91
2021/11/15 00:27:15;;;;;;;14.70;10.25;;;9.30;90.40;;;;;;2110446;28;20028;-92
2021/11/15 00:28:16;;;;;;;14.45;9.90;;;9.20;90.40;;;;;;2093464;28;20064;-92
2021/11/15 00:29:17;;;;;;;14.00;9.70;;;9.20;90.40;;;;;;2096539;28;20060;-91
2021/11/15 00:30:18;;;;;;;15.20;10.30;;;9.20;90.70;;;;;;2105826;28;20028;-91
2021/11/15 00:31:19;;;;;;;13.50;9.65;;;9.20;90.40;;;;;;2102207;28;20027;-91
2021/11/15 00:32:19;;;;;;;15.40;10.88;;;9.20;90.40;;;;;;2096875;28;20054;-90
2021/11/15 00:33:20;;;;;;;16.10;11.10;;;9.20;90.40;;;;;;2088127;28;20031;-90
2021/11/15 00:34:21;;;;;;;15.35;10.68;;;9.20;90.40;;;;;;2106729;28;20518;-91
2021/11/15 00:35:22;;;;;;;14.23;9.68;;;9.20;90.40;;;;;;2108127;28;20371;-91
2021/11/15 00:36:23;;;;;;;14.63;10.30;;;9.20;90.40;;;;;;2105617;28;20027;-91
2021/11/15 00:37:24;;;;;;;14.38;9.90;;;9.20;90.40;;;;;;2108255;28;20016;-91
2021/11/15 00:38:25;;;;;;;14.00;10.02;;;9.20;90.40;;;;;;2103931;28;20451;-92
2021/11/15 00:39:26;;;;;;;15.65;10.10;;;9.20;90.40;;;;;;2101118;28;20363;-92
2021/11/15 00:40:27;;;;;;;14.90;10.50;;;9.20;90.70;;;;;;2106310;28;20090;-91
2021/11/15 00:41:27;;;;;;;13.65;9.45;;;9.20;90.40;;;;;;2091526;28;20479;-91
2021/11/15 00:42:28;;;;;;;13.90;10.18;;;9.20;90.40;;;;;;2096186;28;20057;-91
2021/11/15 00:43:29;;;;;;;14.27;9.23;;;9.20;90.50;;;;;;2107995;28;20406;-91
2021/11/15 00:44:29;;;;;;;14.20;9.80;;;9.20;90.50;;;;;;2090344;28;20025;-91
2021/11/15 00:45:30;;;;;;;15.50;9.75;;;9.20;90.50;;;;;;2083268;28;20029;-90
2021/11/15 00:46:31;;;;;;;12.80;9.18;;;9.20;90.50;;;;;;2099642;28;20028;-92
2021/11/15 00:47:32;;;;;;;12.25;9.25;;;9.20;90.50;;;;;;2108846;28;20043;-91
2021/11/15 00:48:32;;;;;;;13.48;9.15;;;9.20;90.70;;;;;;2108319;28;20025;-92
2021/11/15 00:49:34;;;;;;;13.20;9.45;;;9.20;90.40;;;;;;2113183;28;20046;-91
2021/11/15 00:50:37;;;;;;;13.45;9.73;;;9.20;90.40;;;;;;2105227;28;20475;-91
2021/11/15 00:51:38;;;;;;;12.27;8.68;;;9.20;90.50;;;;;;2108781;28;20031;-92
2021/11/15 00:52:38;;;;;;;13.23;9.15;;;9.10;90.40;;;;;;2095164;28;20063;-92
2021/11/15 00:53:39;;;;;;;13.20;9.60;;;9.10;90.50;;;;;;2089802;28;20041;-91
2021/11/15 00:54:40;;;;;;;14.15;9.88;;;9.10;90.40;;;;;;2099906;28;20025;-90
2021/11/15 00:55:40;;;;;;;12.40;8.73;;;9.10;90.40;;;;;;2099632;28;20048;-91
2021/11/15 00:56:41;;;;;;;13.15;9.35;;;9.10;90.40;;;;;;2091400;28;20036;-91
2021/11/15 00:57:42;;;;;;;12.25;8.60;;;9.10;90.40;;;;;;2074253;28;20033;-91
2021/11/15 00:58:43;;;;;;;12.82;9.05;;;9.10;90.40;;;;;;2099664;28;20423;-91
2021/11/15 00:59:44;;;;;;;12.52;9.00;;;9.10;90.50;;;;;;2114187;28;20031;-91
2021/11/15 01:00:46;;;;;;;13.55;9.05;;;9.10;90.50;;;;;;2113047;28;20035;-91
2021/11/15 01:01:46;;;;;;;14.60;9.32;;;9.10;90.40;;;;;;2115511;28;20027;-92
2021/11/15 01:02:48;;;;;;;13.07;9.00;;;9.10;90.40;;;;;;2101965;28;20024;-92
2021/11/15 01:03:49;;;;;;;14.68;9.88;;;9.10;90.50;;;;;;2112699;28;20102;-92
2021/11/15 01:04:49;;;;;;;13.98;9.52;;;9.10;90.40;;;;;;2116435;28;20553;-92
2021/11/15 01:05:50;;;;;;;13.90;8.80;;;9.10;90.40;;;;;;2107973;28;20036;-91
2021/11/15 01:06:52;;;;;;;13.27;8.65;;;9.10;90.40;;;;;;2104074;28;20479;-92
2021/11/15 01:07:52;;;;;;;11.88;8.27;;;9.10;90.40;;;;;;2092682;28;20032;-92
2021/11/15 01:08:53;;;;;;;13.93;9.40;;;9.10;90.40;;;;;;2083007;28;20032;-92
2021/11/15 01:09:54;;;;;;;14.93;10.05;;;9.10;90.50;;;;;;2093848;28;20035;-91
2021/11/15 01:10:55;;;;;;;14.02;9.73;;;9.10;90.70;;;;;;2090639;28;20448;-91
2021/11/15 01:11:55;;;;;;;12.80;9.30;;;9.10;90.40;;;;;;2097734;28;20536;-91
2021/11/15 01:12:57;;;;;;;11.85;8.38;;;9.10;90.40;;;;;;2107654;28;20032;-90
2021/11/15 01:14:01;;;;;;;12.35;8.50;;;9.10;90.40;;;;;;2099805;28;20082;-90
2021/11/15 01:15:04;;;;;;;13.98;9.55;;;9.10;90.50;;;;;;2099235;28;20063;-92
2021/11/15 01:16:07;;;;;;;12.63;8.45;;;9.10;90.50;;;;;;2108507;28;20500;-92
2021/11/15 01:17:08;;;;;;;12.68;8.68;;;9.10;90.50;;;;;;2108278;28;20028;-92
2021/11/15 01:18:09;;;;;;;13.07;9.00;;;9.10;90.50;;;;;;2109375;28;20024;-92
2021/11/15 01:19:12;;;;;;;12.30;8.65;;;9.10;90.70;;;;;;2107543;28;20031;-90
2021/11/15 01:20:16;;;;;;;13.73;8.38;;;9.10;90.40;;;;;;2097529;28;20017;-91
2021/11/15 01:21:18;;;;;;;12.50;8.73;;;9.10;90.50;;;;;;2100120;28;20082;-91
2021/11/15 01:22:19;;;;;;;13.85;9.77;;;9.10;90.50;;;;;;2098252;28;20024;-91
2021/11/15 01:23:19;;;;;;;13.45;9.68;;;9.10;90.50;;;;;;2105822;28;20044;-91
2021/11/15 01:24:20;;;;;;;13.88;9.82;;;9.10;90.40;;;;;;2104790;28;20115;-92
2021/11/15 01:25:21;;;;;;;14.63;10.30;;;9.00;90.40;;;;;;2089158;28;20024;-92
2021/11/15 01:26:21;;;;;;;16.17;10.65;;;9.00;90.40;;;;;;2090896;28;20033;-91
2021/11/15 01:27:24;;;;;;;14.80;10.35;;;9.00;90.70;;;;;;2099704;28;20100;-92
2021/11/15 01:28:26;;;;;;;17.30;11.85;;;9.00;90.40;;;;;;2091582;28;20113;-91
2021/11/15 01:29:28;;;;;;;15.90;11.40;;;9.00;90.40;;;;;;2090769;28;20024;-91
2021/11/15 01:30:29;;;;;;;16.52;11.27;;;8.90;90.40;;;;;;2089711;28;20128;-91
2021/11/15 01:31:30;;;;;;;15.13;10.88;;;8.90;90.40;;;;;;2089106;28;20098;-92
2021/11/15 01:32:30;;;;;;;15.55;10.98;;;8.90;90.40;;;;;;2090112;28;20029;-91
2021/11/15 01:33:32;;;;;;;14.73;10.75;;;8.90;90.40;;;;;;2098020;28;20039;-90
2021/11/15 01:34:33;;;;;;;15.50;10.60;;;8.90;90.40;;;;;;2097874;28;20040;-91
2021/11/15 01:35:33;;;;;;;17.17;10.68;;;8.90;90.40;;;;;;2099466;28;20024;-92
2021/11/15 01:36:34;;;;;;;15.30;11.40;;;8.90;90.40;;;;;;2099210;28;20096;-91
2021/11/15 01:37:37;;;;;;;17.10;11.13;;;8.90;90.40;;;;;;2105530;28;20051;-92
2021/11/15 01:38:38;;;;;;;16.05;10.93;;;8.90;90.50;;;;;;2115410;28;20046;-91
2021/11/15 01:39:41;;;;;;;15.80;10.88;;;8.90;90.50;;;;;;2109240;28;20439;-92
2021/11/15 01:40:42;;;;;;;16.60;11.23;;;8.80;90.50;;;;;;2107072;28;20042;-91
2021/11/15 01:41:42;;;;;;;16.38;11.60;;;8.80;90.50;;;;;;2098296;28;20029;-92
2021/11/15 01:42:44;;;;;;;16.23;11.07;;;8.90;90.50;;;;;;2090992;28;20128;-91
2021/11/15 01:43:44;;;;;;;15.20;10.80;;;8.80;90.50;;;;;;2104485;28;20028;-91
2021/11/15 01:44:45;;;;;;;14.75;9.98;;;8.90;90.50;;;;;;2113015;28;20022;-91
2021/11/15 01:45:46;;;;;;;14.77;10.27;;;8.80;90.50;;;;;;2106165;28;20028;-91
2021/11/15 01:46:47;;;;;;;15.38;10.60;;;8.80;90.50;;;;;;2082832;28;20116;-91
2021/11/15 01:47:48;;;;;;;18.25;11.70;;;8.90;90.50;;;;;;2091530;28;20016;-91
2021/11/15 01:48:49;;;;;;;14.85;10.30;;;8.90;90.50;;;;;;2091619;28;20037;-91
2021/11/15 01:49:50;;;;;;;14.52;10.80;;;8.80;90.50;;;;;;2091091;28;20025;-91
2021/11/15 01:50:51;;;;;;;14.88;10.55;;;8.90;90.50;;;;;;2107958;28;20029;-91
2021/11/15 01:51:52;;;;;;;15.63;10.20;;;8.90;90.50;;;;;;2115203;28;20016;-91
2021/11/15 01:52:54;;;;;;;14.68;10.85;;;8.90;90.50;;;;;;2117075;28;20036;-88
2021/11/15 01:53:55;;;;;;;14.63;9.77;;;8.90;90.50;;;;;;2106545;28;20021;-91
2021/11/15 01:54:56;;;;;;;13.65;9.90;;;8.90;90.50;;;;;;2091851;28;20013;-91
2021/11/15 01:55:56;;;;;;;16.02;10.50;;;8.90;90.50;;;;;;2100095;28;20022;-91
2021/11/15 01:56:57;;;;;;;16.60;10.80;;;8.90;90.50;;;;;;2109281;28;20062;-93
2021/11/15 01:57:59;;;;;;;16.00;11.32;;;8.80;90.50;;;;;;2099964;28;20029;-90
2021/11/15 01:59:04;;;;;;;15.55;10.98;;;8.80;90.40;;;;;;2091524;28;20044;-91
2021/11/15 02:00:12;;;;;;;14.35;10.50;;;8.80;90.50;;;;;;2111452;27;20033;-88
2021/11/15 02:01:13;;;;;;;16.83;11.60;;;8.90;90.50;;;;;;2116419;28;20012;-93
2021/11/15 02:02:14;;;;;;;15.50;10.90;;;8.80;90.50;;;;;;2119915;28;20527;-92
2021/11/15 02:03:15;;;;;;;16.98;11.52;;;8.80;90.50;;;;;;2125400;28;20044;-88
2021/11/15 02:04:16;;;;;;;14.80;10.35;;;8.80;90.50;;;;;;2120655;28;20177;-91
2021/11/15 02:05:17;;;;;;;15.15;10.68;;;8.80;90.80;;;;;;2122389;28;20031;-94
2021/11/15 02:06:17;;;;;;;15.88;11.43;;;8.80;90.60;;;;;;2115472;28;20032;-93
2021/11/15 02:07:18;;;;;;;16.35;11.23;;;8.80;90.50;;;;;;2116361;28;20030;-93
2021/11/15 02:08:19;;;;;;;15.70;10.90;;;8.80;90.50;;;;;;2113179;28;20028;-92
2021/11/15 02:09:19;;;;;;;16.73;11.75;;;8.80;90.50;;;;;;2115912;27;20046;-90
2021/11/15 02:10:20;;;;;;;17.73;12.27;;;8.80;90.50;;;;;;2119478;27;20092;-91
2021/11/15 02:11:21;;;;;;;17.50;11.35;;;8.80;90.50;;;;;;2111802;28;20056;-90
2021/11/15 02:12:25;;;;;;;17.20;11.73;;;8.80;90.50;;;;;;2115569;28;20027;-90
2021/11/15 02:13:26;;;;;;;16.55;11.20;;;8.80;90.60;;;;;;2115899;28;20030;-90
2021/11/15 02:14:28;;;;;;;16.20;11.13;;;8.80;90.50;;;;;;2107403;28;20117;-91
2021/11/15 02:15:30;;;;;;;16.15;11.00;;;8.80;90.60;;;;;;2100469;28;20043;-92
2021/11/15 02:16:31;;;;;;;15.85;10.93;;;8.80;90.60;;;;;;2108118;28;20008;-92
2021/11/15 02:17:33;;;;;;;16.95;11.30;;;8.80;90.60;;;;;;2108096;28;20013;-91
2021/11/15 02:18:34;;;;;;;15.10;10.77;;;8.80;90.60;;;;;;2115937;28;20030;-91
2021/11/15 02:19:34;;;;;;;15.82;10.93;;;8.80;90.60;;;;;;2118363;28;20027;-91
2021/11/15 02:21:00;;;;;;;16.83;11.77;;;8.80;90.60;;;;;;2111162;28;20792;-90
2021/11/15 02:22:01;;;;;;;15.98;11.45;;;8.80;90.90;;;;;;2113723;28;20492;-91
2021/11/15 02:23:02;;;;;;;16.77;11.50;;;8.80;90.60;;;;;;2107769;28;20055;-91
2021/11/15 02:24:04;;;;;;;18.17;11.98;;;8.80;90.60;;;;;;2102457;28;20032;-92
2021/11/15 02:25:06;;;;;;;15.93;11.20;;;8.70;90.50;;;;;;2102903;28;20040;-91
2021/11/15 02:26:09;;;;;;;15.15;10.90;;;8.70;90.80;;;;;;2109292;28;20020;-92
2021/11/15 02:27:10;;;;;;;17.73;11.32;;;8.70;90.60;;;;;;2110337;28;20032;-91
2021/11/15 02:28:11;;;;;;;17.88;12.90;;;8.70;90.60;;;;;;2097995;28;20025;-91
2021/11/15 02:29:12;;;;;;;18.85;12.57;;;8.70;90.60;;;;;;2102425;28;20039;-92
2021/11/15 02:30:21;;;;;;;17.73;12.32;;;8.70;90.60;;;;;;2098505;28;20029;-91
2021/11/15 02:31:28;;;;;;;17.98;11.80;;;8.70;90.70;;;;;;2115515;27;20026;-89
2021/11/15 02:32:31;;;;;;;17.92;12.30;;;8.70;90.70;;;;;;2116396;28;20023;-92
2021/11/15 02:33:32;;;;;;;19.10;13.43;;;8.70;90.70;;;;;;2090665;28;20024;-91
2021/11/15 02:34:34;;;;;;;17.77;12.18;;;8.70;90.70;;;;;;2098515;28;20028;-93
2021/11/15 02:35:35;;;;;;;18.50;13.25;;;8.70;90.70;;;;;;2098726;28;20036;-92
2021/11/15 02:36:35;;;;;;;18.77;12.75;;;8.70;90.70;;;;;;2089874;28;20124;-92
2021/11/15 02:37:37;;;;;;;17.25;12.35;;;8.70;90.70;;;;;;2098808;28;20478;-92
2021/11/15 02:38:38;;;;;;;16.95;12.55;;;8.70;90.70;;;;;;2094188;28;20025;-92
2021/11/15 02:39:38;;;;;;;16.23;11.75;;;8.70;90.70;;;;;;2106531;28;20028;-92
2021/11/15 02:40:39;;;;;;;17.42;12.13;;;8.70;90.70;;;;;;2094701;28;20024;-92
2021/11/15 02:41:40;;;;;;;18.63;12.65;;;8.70;90.70;;;;;;2090724;28;20025;-92
2021/11/15 02:42:41;;;;;;;18.73;12.80;;;8.70;90.70;;;;;;2096332;28;20050;-93
2021/11/15 02:43:42;;;;;;;18.05;12.82;;;8.70;90.70;;;;;;2089770;28;20055;-91
2021/11/15 02:44:45;;;;;;;19.77;13.63;;;8.70;90.70;;;;;;2092726;28;20369;-92
2021/11/15 02:45:46;;;;;;;17.38;12.40;;;8.70;90.70;;;;;;2090669;28;20041;-92
2021/11/15 02:46:47;;;;;;;18.33;12.93;;;8.70;90.70;;;;;;2091304;28;20036;-92
2021/11/15 02:47:48;;;;;;;19.15;13.02;;;8.70;90.70;;;;;;2099126;28;20036;-92
2021/11/15 02:48:49;;;;;;;17.77;12.13;;;8.70;90.70;;;;;;2097434;28;20535;-92
2021/11/15 02:49:49;;;;;;;17.20;11.93;;;8.60;91.00;;;;;;2089538;28;20071;-92
2021/11/15 02:50:51;;;;;;;17.83;11.90;;;8.70;90.80;;;;;;2087619;28;20492;-92
2021/11/15 02:51:51;;;;;;;18.63;12.85;;;8.70;90.80;;;;;;2091028;28;20062;-92
2021/11/15 02:52:56;;;;;;;17.40;12.48;;;8.70;90.80;;;;;;2098369;28;20589;-92
2021/11/15 02:53:57;;;;;;;20.10;13.45;;;8.70;90.80;;;;;;2103284;28;20034;-92
2021/11/15 02:54:59;;;;;;;18.90;13.60;;;8.70;90.80;;;;;;2110567;28;20039;-91
2021/11/15 02:55:59;;;;;;;21.13;14.55;;;8.70;90.80;;;;;;2106667;28;20024;-91
2021/11/15 02:57:00;;;;;;;19.83;13.70;;;8.70;90.80;;;;;;2085004;28;20036;-91
2021/11/15 02:58:04;;;;;;;17.85;12.60;;;8.60;90.80;;;;;;2084890;28;20713;-91
2021/11/15 02:59:05;;;;;;;18.85;12.93;;;8.70;90.80;;;;;;2111282;28;20477;-92
2021/11/15 03:00:25;;;;;;;20.33;13.18;;;8.60;90.80;;;;;;2098910;28;20033;-91
2021/11/15 03:01:26;;;;;;;19.00;12.85;;;8.70;90.80;;;;;;2102527;28;20020;-90
2021/11/15 03:02:28;;;;;;;20.83;14.25;;;8.60;90.80;;;;;;2098282;28;20036;-91
2021/11/15 03:03:29;;;;;;;20.60;14.48;;;8.60;90.80;;;;;;2098786;28;20040;-90
2021/11/15 03:04:30;;;;;;;22.20;15.30;;;8.60;90.80;;;;;;2098537;28;20548;-92
2021/11/15 03:05:34;;;;;;;20.40;14.00;;;8.60;90.80;;;;;;2104852;28;20031;-92
2021/11/15 03:06:34;;;;;;;20.23;14.00;;;8.60;90.80;;;;;;2097519;28;20020;-91
2021/11/15 03:07:35;;;;;;;20.77;14.07;;;8.60;90.80;;;;;;2098823;28;20021;-91
2021/11/15 03:08:36;;;;;;;21.27;15.15;;;8.60;90.80;;;;;;2106934;28;20050;-93
2021/11/15 03:09:38;;;;;;;21.00;14.63;;;8.60;90.80;;;;;;2103160;28;20024;-91
2021/11/15 03:10:41;;;;;;;21.85;14.90;;;8.60;90.80;;;;;;2098802;28;20020;-92
2021/11/15 03:11:42;;;;;;;21.42;14.90;;;8.60;90.80;;;;;;2112902;28;20512;-91
2021/11/15 03:12:43;;;;;;;19.98;13.25;;;8.60;90.80;;;;;;2090308;28;20116;-91
2021/11/15 03:13:46;;;;;;;20.23;14.10;;;8.60;90.80;;;;;;2099565;28;20126;-90
2021/11/15 03:14:46;;;;;;;20.10;14.30;;;8.60;90.80;;;;;;2113937;28;20023;-90
2021/11/15 03:15:50;;;;;;;20.00;13.48;;;8.60;90.90;;;;;;2099254;28;20039;-91
2021/11/15 03:16:51;;;;;;;19.55;13.65;;;8.60;90.90;;;;;;2101672;28;20031;-91
2021/11/15 03:18:02;;;;;;;19.60;13.77;;;8.60;90.90;;;;;;2106825;28;20046;-91
2021/11/15 03:19:03;;;;;;;18.55;13.00;;;8.60;90.90;;;;;;2101042;28;20082;-91
2021/11/15 03:20:05;;;;;;;20.13;13.55;;;8.60;90.80;;;;;;2109033;28;20101;-91
2021/11/15 03:21:15;;;;;;;21.10;14.70;;;8.60;90.80;;;;;;2118139;27;20027;-91
2021/11/15 03:22:16;;;;;;;19.52;13.18;;;8.60;90.80;;;;;;2106645;28;20100;-91
2021/11/15 03:23:20;;;;;;;19.58;13.88;;;8.60;90.80;;;;;;2098513;28;20032;-90
2021/11/15 03:24:21;;;;;;;20.52;14.18;;;8.60;90.80;;;;;;2107706;28;20028;-92
2021/11/15 03:25:29;;;;;;;19.25;13.30;;;8.50;90.80;;;;;;2105268;28;20028;-91
2021/11/15 03:26:30;;;;;;;20.27;13.73;;;8.60;91.10;;;;;;2104449;28;20034;-91
2021/11/15 03:27:35;;;;;;;19.85;14.13;;;8.50;90.80;;;;;;2106915;28;20051;-90
2021/11/15 03:28:39;;;;;;;18.30;12.68;;;8.60;90.80;;;;;;2102892;28;20028;-91
2021/11/15 03:29:40;;;;;;;21.40;14.00;;;8.60;90.80;;;;;;2113691;28;20040;-91
2021/11/15 03:30:41;;;;;;;18.35;12.77;;;8.50;90.80;;;;;;2106744;28;20029;-91
2021/11/15 03:31:43;;;;;;;20.02;13.80;;;8.50;90.80;;;;;;2104210;28;20020;-91
2021/11/15 03:32:45;;;;;;;20.13;13.88;;;8.50;90.80;;;;;;2106282;28;20514;-90
2021/11/15 03:33:48;;;;;;;20.00;13.30;;;8.60;90.80;;;;;;2106898;28;20541;-91
2021/11/15 03:34:49;;;;;;;21.73;14.93;;;8.50;90.80;;;;;;2099840;28;20510;-91
2021/11/15 03:35:50;;;;;;;20.35;14.27;;;8.60;90.80;;;;;;2098282;28;20095;-91
2021/11/15 03:36:50;;;;;;;20.13;14.38;;;8.50;90.80;;;;;;2096906;28;20037;-91
2021/11/15 03:37:52;;;;;;;22.20;15.68;;;8.50;90.80;;;;;;2098553;28;20241;-92
2021/11/15 03:38:54;;;;;;;21.42;15.18;;;8.50;90.80;;;;;;2108355;28;20013;-92
2021/11/15 03:39:55;;;;;;;21.50;14.65;;;8.50;90.80;;;;;;2095646;28;20036;-84
2021/11/15 03:40:56;;;;;;;22.05;15.35;;;8.50;90.80;;;;;;2099746;28;20052;-87
2021/11/15 03:41:56;;;;;;;20.52;14.00;;;8.60;90.80;;;;;;2092242;28;20081;-86
2021/11/15 03:43:03;;;;;;;19.40;13.82;;;8.50;90.80;;;;;;2097066;28;20033;-88
2021/11/15 03:44:04;;;;;;;21.33;14.15;;;8.60;90.90;;;;;;2117072;28;20074;-86
2021/11/15 03:45:05;;;;;;;21.50;14.77;;;8.50;90.80;;;;;;2118291;28;20012;-87
2021/11/15 03:46:06;;;;;;;20.13;13.95;;;8.50;90.80;;;;;;2109506;28;20091;-91
2021/11/15 03:47:07;;;;;;;22.02;14.82;;;8.50;90.80;;;;;;2113628;28;20022;-87
2021/11/15 03:48:10;;;;;;;21.20;15.10;;;8.50;90.80;;;;;;2102847;28;20009;-89
2021/11/15 03:49:14;;;;;;;23.00;15.98;;;8.50;90.80;;;;;;2107419;28;20025;-92
2021/11/15 03:50:15;;;;;;;21.52;15.10;;;8.50;90.80;;;;;;2106074;28;20021;-91
2021/11/15 03:51:16;;;;;;;20.65;14.57;;;8.50;90.80;;;;;;2098885;28;20017;-91
2021/11/15 03:52:17;;;;;;;20.25;14.90;;;8.50;90.90;;;;;;2106985;28;20020;-91
2021/11/15 03:53:18;;;;;;;20.77;14.52;;;8.50;90.90;;;;;;2095657;28;20031;-90
2021/11/15 03:54:18;;;;;;;21.08;14.98;;;8.50;90.90;;;;;;2089472;28;20112;-91
2021/11/15 03:55:21;;;;;;;21.58;14.57;;;8.50;90.90;;;;;;2094736;28;20025;-93
2021/11/15 03:56:24;;;;;;;21.70;15.02;;;8.50;90.90;;;;;;2090423;28;20145;-91
2021/11/15 03:57:25;;;;;;;23.98;16.40;;;8.50;91.10;;;;;;2091511;28;20515;-91
2021/11/15 03:58:26;;;;;;;24.65;15.93;;;8.50;90.90;;;;;;2114812;28;20027;-91
2021/11/15 03:59:26;;;;;;;22.75;15.63;;;8.50;90.90;;;;;;2105714;28;20456;-92
2021/11/15 04:00:31;;;;;;;25.65;18.08;;;8.50;90.90;;;;;;2105898;28;20505;-92
2021/11/15 04:01:33;;;;;;;25.92;17.58;;;8.50;91.10;;;;;;2105052;28;20024;-92
2021/11/15 04:02:35;;;;;;;24.60;17.35;;;8.50;90.80;;;;;;2113445;28;20023;-92
2021/11/15 04:03:38;;;;;;;24.27;16.20;;;8.50;90.90;;;;;;2090022;28;20129;-92
2021/11/15 04:04:52;;;;;;;23.85;16.63;;;8.50;90.90;;;;;;2090893;28;20025;-92
2021/11/15 04:06:00;;;;;;;22.50;15.77;;;8.40;90.90;;;;;;2088997;28;20036;-91
2021/11/15 04:07:00;;;;;;;25.05;16.52;;;8.50;90.90;;;;;;2102408;28;20028;-92
2021/11/15 04:08:03;;;;;;;22.10;15.30;;;8.40;90.90;;;;;;2105189;28;20028;-93
2021/11/15 04:09:09;;;;;;;22.25;16.02;;;8.50;90.90;;;;;;2098731;28;20021;-91
2021/11/15 04:10:14;;;;;;;21.90;14.73;;;8.50;90.90;;;;;;2106164;28;20107;-92
2021/11/15 04:11:19;;;;;;;22.75;15.52;;;8.40;90.90;;;;;;2105108;28;20020;-92
2021/11/15 04:12:20;;;;;;;21.23;15.02;;;8.50;90.90;;;;;;2107372;28;20060;-92
2021/11/15 04:13:24;;;;;;;22.48;15.65;;;8.50;90.90;;;;;;2106034;28;20024;-93
2021/11/15 04:14:25;;;;;;;22.30;14.30;;;8.50;90.90;;;;;;2106763;28;20070;-91
2021/11/15 04:15:26;;;;;;;22.30;14.77;;;8.50;90.90;;;;;;2097018;28;20471;-92
2021/11/15 04:16:27;;;;;;;24.98;16.58;;;8.50;90.90;;;;;;2089977;28;20024;-93
2021/11/15 04:17:27;;;;;;;24.08;17.02;;;8.50;90.90;;;;;;2106749;28;20024;-92
2021/11/15 04:18:33;;;;;;;24.55;17.00;;;8.50;90.80;;;;;;2097766;28;20052;-92
2021/11/15 04:19:36;;;;;;;24.45;16.40;;;8.50;90.80;;;;;;2100123;28;20049;-92
2021/11/15 04:20:38;;;;;;;21.33;15.35;;;8.50;90.80;;;;;;2107665;28;20028;-92
2021/11/15 04:21:40;;;;;;;26.02;17.30;;;8.50;90.80;;;;;;2106740;28;20024;-92
2021/11/15 04:22:41;;;;;;;22.55;15.52;;;8.40;90.80;;;;;;2098022;28;20037;-92
2021/11/15 04:23:42;;;;;;;24.35;16.45;;;8.40;90.80;;;;;;2112583;28;20031;-91
2021/11/15 04:24:43;;;;;;;24.13;16.98;;;8.50;90.80;;;;;;2098455;28;20120;-92
2021/11/15 04:25:43;;;;;;;20.38;14.77;;;8.40;90.80;;;;;;2087298;28;20145;-91
2021/11/15 04:26:44;;;;;;;21.23;14.88;;;8.40;90.80;;;;;;2089192;28;20113;-92
2021/11/15 04:27:45;;;;;;;21.50;14.85;;;8.50;90.90;;;;;;2080872;28;20029;-92
2021/11/15 04:28:46;;;;;;;20.25;14.63;;;8.50;90.90;;;;;;2081679;28;20585;-92
2021/11/15 04:29:46;;;;;;;22.45;14.57;;;8.50;90.90;;;;;;2096211;28;20032;-92
2021/11/15 04:30:47;;;;;;;23.40;15.82;;;8.50;90.90;;;;;;2098405;28;20029;-92
2021/11/15 04:31:48;;;;;;;24.05;16.30;;;8.50;90.80;;;;;;2081217;28;20075;-92
2021/11/15 04:32:49;;;;;;;24.15;15.85;;;8.50;90.80;;;;;;2087077;28;20071;-92
2021/11/15 04:33:50;;;;;;;23.75;16.20;;;8.50;90.80;;;;;;2078724;28;20103;-91
2021/11/15 04:34:50;;;;;;;22.98;15.52;;;8.50;90.80;;;;;;2080819;28;20091;-92
2021/11/15 04:35:52;;;;;;;24.02;16.25;;;8.50;90.80;;;;;;2096603;28;20050;-93
2021/11/15 04:36:53;;;;;;;28.42;18.48;;;8.50;90.80;;;;;;2104739;28;20029;-92
2021/11/15 04:37:54;;;;;;;25.58;18.10;;;8.50;90.80;;;;;;2105388;28;20035;-91
2021/11/15 04:38:56;;;;;;;26.40;17.92;;;8.50;90.80;;;;;;2106474;28;20032;-93
2021/11/15 04:39:57;;;;;;;24.13;16.92;;;8.40;90.80;;;;;;2101596;28;20501;-92
2021/11/15 04:40:58;;;;;;;23.60;16.83;;;8.40;90.80;;;;;;2105729;28;20074;-92
2021/11/15 04:41:58;;;;;;;24.83;17.20;;;8.40;90.80;;;;;;2089817;28;20112;-92
2021/11/15 04:43:01;;;;;;;24.60;16.85;;;8.40;90.80;;;;;;2091991;28;20072;-93
2021/11/15 04:44:01;;;;;;;26.42;17.80;;;8.40;90.80;;;;;;2091736;28;20033;-92
2021/11/15 04:45:04;;;;;;;25.17;17.20;;;8.40;90.80;;;;;;2102019;28;20399;-91
2021/11/15 04:46:05;;;;;;;26.08;18.05;;;8.40;90.80;;;;;;2108699;28;20028;-91
2021/11/15 04:47:06;;;;;;;25.52;18.02;;;8.40;90.80;;;;;;2100064;28;20092;-92
2021/11/15 04:48:08;;;;;;;26.38;17.33;;;8.40;90.80;;;;;;2105442;28;20036;-92
2021/11/15 04:49:09;;;;;;;28.88;19.27;;;8.40;90.80;;;;;;2107067;28;20012;-90
2021/11/15 04:50:11;;;;;;;26.13;17.85;;;8.40;90.80;;;;;;2108986;28;20040;-84
2021/11/15 04:51:11;;;;;;;26.63;17.30;;;8.40;90.80;;;;;;2101654;28;20027;-92
2021/11/15 04:52:12;;;;;;;25.40;17.17;;;8.40;90.80;;;;;;2094196;28;20058;-92
2021/11/15 04:53:13;;;;;;;24.45;17.23;;;8.40;90.80;;;;;;2113418;28;20590;-92
2021/11/15 04:54:14;;;;;;;25.38;17.85;;;8.40;90.80;;;;;;2114201;28;20131;-92
2021/11/15 04:55:18;;;;;;;24.73;16.65;;;8.40;90.80;;;;;;2114337;28;20059;-92
2021/11/15 04:56:19;;;;;;;25.15;16.98;;;8.40;90.80;;;;;;2107833;28;20012;-91
2021/11/15 04:57:20;;;;;;;24.98;17.42;;;8.40;90.80;;;;;;2106930;28;20123;-91
2021/11/15 04:58:20;;;;;;;23.75;16.60;;;8.40;90.80;;;;;;2097976;28;20064;-92
2021/11/15 04:59:21;;;;;;;24.45;16.08;;;8.40;90.80;;;;;;2098171;28;20038;-91
2021/11/15 05:00:29;;;;;;;23.63;15.68;;;8.40;90.80;;;;;;2102469;28;20055;-92
2021/11/15 05:01:30;;;;;;;22.27;15.02;;;8.40;90.80;;;;;;2107698;28;20009;-92
2021/11/15 05:02:30;;;;;;;23.88;16.38;;;8.40;90.80;;;;;;2113706;28;20000;-91
2021/11/15 05:03:35;;;;;;;24.17;16.35;;;8.40;90.80;;;;;;2106823;28;20139;-91
2021/11/15 05:04:36;;;;;;;22.38;15.38;;;8.40;90.80;;;;;;2109089;28;20024;-92
2021/11/15 05:05:37;;;;;;;22.58;16.27;;;8.40;90.80;;;;;;2101242;28;20032;-93
2021/11/15 05:06:37;;;;;;;24.27;16.05;;;8.40;90.80;;;;;;2105629;28;20454;-92
2021/11/15 05:07:38;;;;;;;22.40;15.35;;;8.40;90.80;;;;;;2111605;28;20036;-92
2021/11/15 05:08:39;;;;;;;22.88;14.90;;;8.40;90.80;;;;;;2117558;28;20030;-91
2021/11/15 05:09:40;;;;;;;23.25;15.52;;;8.40;90.80;;;;;;2105854;28;20031;-92
2021/11/15 05:10:41;;;;;;;22.05;15.40;;;8.40;90.80;;;;;;2105198;28;20028;-91
2021/11/15 05:11:41;;;;;;;22.40;15.73;;;8.40;90.80;;;;;;2097287;28;20229;-92
2021/11/15 05:12:42;;;;;;;24.80;16.45;;;8.40;90.80;;;;;;2105830;28;20099;-92
2021/11/15 05:13:42;;;;;;;22.83;16.92;;;8.40;90.80;;;;;;2097425;28;20028;-92
2021/11/15 05:14:43;;;;;;;22.90;15.95;;;8.40;90.80;;;;;;2088800;28;20479;-92
2021/11/15 05:15:44;;;;;;;23.90;16.10;;;8.40;90.80;;;;;;2089189;28;20052;-91
2021/11/15 05:16:45;;;;;;;22.25;15.48;;;8.40;90.80;;;;;;2097339;28;20025;-91
2021/11/15 05:17:50;;;;;;;21.67;15.13;;;8.40;90.80;;;;;;2088182;28;20090;-91